Yellowstone Airport
KWYS : rendu visible

Aérodrome :











RETROUVEZ-NOUS SUR...

 
LOGIN :

S'inscrire | Disclaimer

   EN    FR    IT 

 









Légende :    VFR   VFR Marginal   IFR   IFR Intensif   IFR Très Intensif
Visi : 
Plafond : 
>= 8 km
>= 3000ft
5 à 8 km
1000 à 3000 ft
1500m à 5 km
500 à 1000 ft
800 à 1500m
200 à 500 ft
< 800m
< 200 ft
Symboles :   Orages  Brouillard  Fortes neiges  Fortes précipitations  Vent > 20 kt






- Altitude de l'aérodrome : 6649 ft


KWYS - Yellowstone

DERNIER METAR :
  • 072355Z AUTO 24012G21KT 10SM CLR 24/04 A3013 RMK AO2

METARs EXPIRÉS :
  • 072335Z AUTO 23013G27KT 10SM CLR 24/05 A3013 RMK AO2
  • 072315Z AUTO 22016G24KT 10SM CLR 24/06 A3013 RMK AO2
  • 072255Z AUTO 22013G24KT 10SM CLR 25/05 A3013 RMK AO2
  • 072235Z AUTO 23015G30KT 10SM CLR 24/04 A3013 RMK AO2
  • 072215Z AUTO 26011G19KT 230V300 10SM CLR 25/05 A3013 RMK AO2
  • 072150Z AUTO 19019G27KT 10SM CLR 24/06 A3013 RMK AO2
  • 072135Z AUTO 21018G26KT 10SM CLR 24/06 A3013 RMK AO2
  • 072115Z AUTO 22015G23KT 10SM CLR 24/06 A3013 RMK AO2

TAF KWYS
Valide du 08 à 00h jusqu'au 09 à 00h UTC


072337Z 0800/0824 24011G20KT P6SM FEW150
FM080200 VRB06KT P6SM SKC
FM081800 22011G18KT P6SM SKC
FIR KZLC / Amérique du Nord



MET'MAP, la Météo Aéronautique d'un coup d'oeil ! - Copyright ORBIFLY Décembre 2007 - Disclaimer

ORBIFLY MET'MAP TEAM :

Programmation & Développement : Alexandra Zaïnal
Sur une idée originale de : Baudouin d'Aumeries
Assistance à la programmation : Marc-Olivier Méhu
Soutien technique & logistique : Manuel Goepfert

Contact : metmap@orbifly.com




SOURCES & CREDITS :

   NOAA       Earth
Advisory